createdAt,value
2022-11-27T00:01:32.969Z,3.47
2022-11-27T00:04:00.550Z,4.15
2022-11-27T00:06:29.199Z,4.55
2022-11-27T00:09:01.155Z,3.58
2022-11-27T00:11:29.882Z,5.70
2022-11-27T00:13:57.915Z,5.13
2022-11-27T00:16:26.850Z,6.30
2022-11-27T00:18:54.084Z,3.40
2022-11-27T00:21:26.776Z,6.68
2022-11-27T00:23:55.084Z,1.30
2022-11-27T00:26:22.928Z,4.65
2022-11-27T00:28:50.067Z,6.85
2022-11-27T00:31:29.448Z,3.15
2022-11-27T00:33:58.845Z,2.97
2022-11-27T00:36:27.554Z,4.20
2022-11-27T00:38:55.148Z,5.95
2022-11-27T00:41:25.318Z,3.72
2022-11-27T00:43:53.956Z,3.75
2022-11-27T00:46:28.064Z,3.25
2022-11-27T00:48:56.777Z,3.00
2022-11-27T00:51:24.867Z,4.55
2022-11-27T00:53:53.183Z,1.73
2022-11-27T00:56:26.099Z,5.45
2022-11-27T00:58:53.732Z,2.13
2022-11-27T01:01:23.776Z,2.40
2022-11-27T01:03:50.853Z,4.20
2022-11-27T01:06:19.455Z,2.97
2022-11-27T01:08:47.247Z,2.90
2022-11-27T01:11:23.067Z,3.30
2022-11-27T01:13:49.873Z,2.22
2022-11-27T01:16:19.881Z,1.77
2022-11-27T01:18:48.230Z,3.28
2022-11-27T01:21:17.954Z,3.65
2022-11-27T01:23:45.616Z,2.22
2022-11-27T01:26:13.629Z,3.25
2022-11-27T01:28:41.557Z,2.83
2022-11-27T01:31:21.249Z,3.55
2022-11-27T01:33:52.098Z,2.03
2022-11-27T01:36:19.119Z,2.42
2022-11-27T01:38:45.940Z,2.35
2022-11-27T01:41:37.341Z,2.80
2022-11-27T01:44:24.134Z,4.88
2022-11-27T01:46:58.666Z,2.83
2022-11-27T01:49:36.870Z,2.35
2022-11-27T01:52:26.242Z,2.05
2022-11-27T01:54:58.002Z,3.28
2022-11-27T01:57:35.991Z,2.88
2022-11-27T02:00:04.608Z,2.90
2022-11-27T02:02:31.433Z,5.50
2022-11-27T02:04:58.604Z,4.38
2022-11-27T02:07:25.736Z,3.47
2022-11-27T02:09:52.661Z,2.70
2022-11-27T02:12:30.638Z,2.30
2022-11-27T02:15:04.409Z,1.27
2022-11-27T02:17:39.527Z,0.90
2022-11-27T02:20:24.478Z,2.05
2022-11-27T02:23:19.976Z,1.33
2022-11-27T02:25:58.975Z,1.35
2022-11-27T02:28:56.784Z,2.70
2022-11-27T02:31:38.327Z,0.80
2022-11-27T02:34:38.628Z,2.75
2022-11-27T02:37:49.341Z,1.30
2022-11-27T02:40:20.589Z,3.13
2022-11-27T02:42:54.607Z,1.23
2022-11-27T02:45:35.549Z,3.25
2022-11-27T02:48:04.396Z,2.42
2022-11-27T02:50:34.545Z,1.05
2022-11-27T02:53:07.049Z,3.03
2022-11-27T02:55:36.355Z,0.98
2022-11-27T02:58:07.772Z,1.92
2022-11-27T03:00:36.156Z,1.20
2022-11-27T03:03:08.556Z,1.55
2022-11-27T03:05:40.243Z,0.52
2022-11-27T03:08:28.586Z,1.85
2022-11-27T03:11:02.751Z,1.80
2022-11-27T03:13:31.776Z,1.20
2022-11-27T03:16:10.780Z,0.98
2022-11-27T03:19:03.603Z,3.03
2022-11-27T03:24:15.699Z,1.38
2022-11-27T03:26:43.767Z,1.90
2022-11-27T03:29:18.184Z,1.00
2022-11-27T03:31:45.292Z,3.13
2022-11-27T03:34:12.484Z,1.13
2022-11-27T03:36:39.264Z,0.80
2022-11-27T03:39:06.458Z,1.85
2022-11-27T03:42:05.742Z,4.25
2022-11-27T03:44:53.527Z,0.82
2022-11-27T03:47:42.393Z,1.20
2022-11-27T03:50:29.651Z,1.17
2022-11-27T03:53:11.571Z,1.55
2022-11-27T03:56:19.818Z,3.33
2022-11-27T03:59:03.623Z,1.35
2022-11-27T04:01:31.740Z,1.90
2022-11-27T04:03:58.706Z,3.08
2022-11-27T04:06:25.656Z,1.02
2022-11-27T04:08:52.864Z,2.55
2022-11-27T04:11:19.819Z,1.60
2022-11-27T04:13:46.763Z,1.73
2022-11-27T04:16:13.691Z,2.83
2022-11-27T04:18:41.003Z,1.55
2022-11-27T04:21:07.868Z,1.42
2022-11-27T04:23:34.731Z,2.80
2022-11-27T04:26:01.530Z,1.27
2022-11-27T04:28:28.568Z,1.30
2022-11-27T04:30:55.429Z,3.08
2022-11-27T04:33:23.455Z,0.80
2022-11-27T04:35:51.413Z,1.83
2022-11-27T04:38:19.334Z,1.70
2022-11-27T04:40:46.397Z,2.17
2022-11-27T04:43:13.344Z,3.17
2022-11-27T04:45:41.274Z,2.25
2022-11-27T04:48:08.179Z,2.65
2022-11-27T04:50:34.990Z,2.25
2022-11-27T04:53:01.786Z,1.38
2022-11-27T04:55:29.744Z,1.45
2022-11-27T04:57:56.579Z,1.63
2022-11-27T05:00:23.543Z,5.20
2022-11-27T05:02:50.545Z,3.08
2022-11-27T05:05:17.476Z,2.17
2022-11-27T05:07:44.383Z,2.58
2022-11-27T05:10:11.392Z,1.80
2022-11-27T05:12:38.231Z,3.03
2022-11-27T05:15:05.677Z,2.97
2022-11-27T05:17:32.508Z,2.33
2022-11-27T05:19:59.341Z,3.10
2022-11-27T05:22:26.209Z,2.60
2022-11-27T05:24:53.129Z,2.60
2022-11-27T05:27:20.127Z,2.60
2022-11-27T05:29:47.044Z,4.43
2022-11-27T05:32:14.041Z,1.85
2022-11-27T05:34:41.204Z,4.43
2022-11-27T05:37:08.648Z,2.15
2022-11-27T05:39:35.614Z,2.42
2022-11-27T05:42:02.391Z,2.70
2022-11-27T05:44:29.449Z,2.30
2022-11-27T05:46:57.367Z,1.83
2022-11-27T05:49:24.424Z,2.58
2022-11-27T05:51:51.900Z,3.42
2022-11-27T05:54:19.867Z,4.95
2022-11-27T05:56:46.979Z,1.00
2022-11-27T05:59:14.560Z,1.60
2022-11-27T06:01:41.875Z,2.90
2022-11-27T06:04:09.582Z,1.15
2022-11-27T06:06:36.991Z,1.33
2022-11-27T06:09:06.825Z,1.58
2022-11-27T06:11:37.827Z,1.83
2022-11-27T06:14:08.690Z,1.60
2022-11-27T06:16:35.716Z,2.35
2022-11-27T06:19:03.298Z,1.67
2022-11-27T06:21:30.108Z,3.70
2022-11-27T06:23:57.305Z,1.30
2022-11-27T06:26:29.096Z,1.55
2022-11-27T06:28:57.584Z,2.80
2022-11-27T06:31:27.342Z,2.10
2022-11-27T06:33:55.558Z,1.48
2022-11-27T06:36:26.438Z,1.67
2022-11-27T06:38:53.257Z,4.20
2022-11-27T06:41:22.965Z,1.88
2022-11-27T06:43:50.093Z,6.22
2022-11-27T06:46:19.093Z,1.23
2022-11-27T06:48:48.422Z,3.60
2022-11-27T06:51:18.854Z,3.88
2022-11-27T06:53:45.921Z,2.03
2022-11-27T06:56:15.858Z,3.65
2022-11-27T06:58:43.310Z,4.75
2022-11-27T07:01:13.594Z,4.95
2022-11-27T07:03:40.939Z,3.10
2022-11-27T07:06:10.546Z,4.75
2022-11-27T07:08:37.892Z,3.63
2022-11-27T07:11:10.731Z,2.67
2022-11-27T07:13:37.628Z,3.28
2022-11-27T07:16:07.202Z,2.28
2022-11-27T07:18:40.432Z,3.45
2022-11-27T07:21:08.269Z,3.67
2022-11-27T07:23:36.483Z,2.17
2022-11-27T07:26:16.771Z,2.10
2022-11-27T07:28:45.855Z,4.07
2022-11-27T07:31:19.382Z,3.78
2022-11-27T07:33:46.346Z,4.72
2022-11-27T07:36:18.468Z,3.30
2022-11-27T07:38:45.941Z,3.97
2022-11-27T07:41:13.382Z,5.45
2022-11-27T07:43:41.028Z,3.80
2022-11-27T07:46:12.820Z,2.15
2022-11-27T07:48:39.780Z,3.22
2022-11-27T07:51:08.456Z,3.72
2022-11-27T07:53:39.865Z,4.10
2022-11-27T07:56:08.508Z,3.87
2022-11-27T07:58:35.689Z,4.28
2022-11-27T08:01:09.884Z,4.78
2022-11-27T08:03:37.468Z,5.00
2022-11-27T08:06:05.380Z,3.95
2022-11-27T08:08:37.067Z,3.47
2022-11-27T08:11:04.933Z,2.75
2022-11-27T08:13:32.746Z,3.15
2022-11-27T08:16:00.383Z,3.58
2022-11-27T08:18:27.465Z,2.97
2022-11-27T08:20:54.289Z,3.05
2022-11-27T08:23:21.796Z,8.00
2022-11-27T08:25:48.845Z,3.83
2022-11-27T08:28:15.802Z,3.38
2022-11-27T08:30:43.135Z,8.00
2022-11-27T08:33:10.644Z,3.67
2022-11-27T08:35:37.524Z,4.85
2022-11-27T08:38:05.610Z,4.78
2022-11-27T08:40:37.549Z,7.30
2022-11-27T08:43:04.561Z,12.60
2022-11-27T08:45:32.924Z,14.43
2022-11-27T08:47:59.917Z,18.20
2022-11-27T08:50:26.902Z,12.45
2022-11-27T08:52:53.697Z,11.45
2022-11-27T08:55:20.702Z,11.70
2022-11-27T08:57:47.771Z,15.52
2022-11-27T09:00:17.300Z,12.23
2022-11-27T09:02:44.313Z,7.38
2022-11-27T09:05:11.286Z,10.07
2022-11-27T09:07:41.466Z,8.90
2022-11-27T09:10:09.209Z,6.75
2022-11-27T09:12:40.523Z,6.07
2022-11-27T09:15:11.269Z,5.60
2022-11-27T09:17:38.315Z,6.40
2022-11-27T09:20:06.648Z,5.07
2022-11-27T09:22:37.020Z,5.40
2022-11-27T09:25:04.083Z,4.50
2022-11-27T09:27:31.190Z,4.90
2022-11-27T09:29:58.444Z,4.45
2022-11-27T09:32:25.229Z,4.32
2022-11-27T09:34:52.965Z,5.13
2022-11-27T09:37:19.881Z,3.67
2022-11-27T09:39:46.941Z,6.53
2022-11-27T09:42:47.581Z,4.60
2022-11-27T09:45:17.437Z,3.28
2022-11-27T09:47:48.468Z,3.95
2022-11-27T09:50:20.549Z,6.53
2022-11-27T09:52:59.636Z,10.50
2022-11-27T10:01:01.766Z,5.75
2022-11-27T10:07:00.185Z,6.88
2022-11-27T10:44:39.567Z,7.05
2022-11-27T10:50:59.576Z,6.13
2022-11-27T10:57:24.814Z,3.90
2022-11-27T11:06:34.124Z,4.03
2022-11-27T11:09:32.676Z,4.93
2022-11-27T11:16:00.154Z,6.00
2022-11-27T11:18:41.292Z,4.10
2022-11-27T11:21:27.783Z,3.78
2022-11-27T11:24:18.436Z,4.18
2022-11-27T11:29:48.571Z,3.90
2022-11-27T11:37:58.854Z,3.22
2022-11-27T11:40:31.808Z,6.57
2022-11-27T11:43:23.633Z,4.40
2022-11-27T11:45:51.209Z,6.57
2022-11-27T11:48:25.181Z,5.97
2022-11-27T11:51:07.249Z,3.85
2022-11-27T11:53:36.479Z,11.70
2022-11-27T11:56:38.251Z,4.72
2022-11-27T11:59:46.006Z,7.73
2022-11-27T12:02:45.148Z,2.92
2022-11-27T12:05:28.566Z,3.67
2022-11-27T12:08:01.103Z,3.88
2022-11-27T12:10:53.503Z,6.18
2022-11-27T12:13:23.450Z,5.68
2022-11-27T12:16:04.795Z,4.85
2022-11-27T12:18:53.503Z,3.80
2022-11-27T12:22:01.779Z,4.32
2022-11-27T12:24:31.721Z,3.33
2022-11-27T12:27:33.181Z,6.22
2022-11-27T12:30:13.908Z,3.90
2022-11-27T12:33:28.565Z,2.80
2022-11-27T12:36:17.928Z,4.85
2022-11-27T12:38:56.811Z,4.93
2022-11-27T12:41:36.288Z,4.68
2022-11-27T12:44:05.890Z,3.75
2022-11-27T12:46:50.724Z,4.35
2022-11-27T12:49:43.324Z,6.60
2022-11-27T12:55:03.980Z,3.53
2022-11-27T12:57:48.837Z,4.75
2022-11-27T13:00:21.099Z,3.80
2022-11-27T13:03:18.842Z,3.05
2022-11-27T13:09:09.116Z,3.70
2022-11-27T13:11:40.337Z,3.28
2022-11-27T13:14:28.499Z,4.17
2022-11-27T13:17:09.242Z,3.47
2022-11-27T13:19:47.757Z,3.67
2022-11-27T13:22:27.875Z,2.60
2022-11-27T13:25:05.040Z,4.78
2022-11-27T13:27:36.652Z,4.93
2022-11-27T13:30:08.928Z,6.47
2022-11-27T13:35:19.586Z,5.85
2022-11-27T13:37:49.668Z,4.63
2022-11-27T13:40:22.187Z,3.38
2022-11-27T13:42:55.789Z,4.25
2022-11-27T13:45:31.889Z,5.60
2022-11-27T13:48:02.572Z,3.00
2022-11-27T13:50:39.531Z,5.85
2022-11-27T13:53:15.240Z,4.82
2022-11-27T13:55:54.135Z,4.22
2022-11-27T13:58:51.624Z,6.18
2022-11-27T14:01:28.331Z,3.70
2022-11-27T14:07:17.546Z,3.63
2022-11-27T14:09:49.600Z,4.25
2022-11-27T14:12:31.079Z,2.95
2022-11-27T14:15:08.573Z,6.40
2022-11-27T14:17:41.623Z,5.32
2022-11-27T14:20:17.544Z,3.80
2022-11-27T14:23:10.977Z,5.35
2022-11-27T14:25:39.156Z,4.78
2022-11-27T14:28:17.216Z,18.67
2022-11-27T14:30:50.909Z,10.77
2022-11-27T14:34:07.285Z,5.60
2022-11-27T14:36:36.883Z,4.32
2022-11-27T14:39:04.793Z,4.13
2022-11-27T14:41:33.874Z,4.47
2022-11-27T14:44:11.806Z,5.45
2022-11-27T14:46:38.984Z,4.45
2022-11-27T14:49:06.422Z,5.70
2022-11-27T14:51:35.744Z,7.32
2022-11-27T14:54:05.770Z,57.28
2022-11-27T14:56:40.162Z,24.75
2022-11-27T14:59:07.364Z,10.20
2022-11-27T15:01:37.307Z,5.55
2022-11-27T15:04:07.434Z,10.63
2022-11-27T15:06:50.174Z,5.85
2022-11-27T15:09:33.061Z,7.57
2022-11-27T15:12:09.221Z,7.18
2022-11-27T15:14:36.372Z,8.05
2022-11-27T15:17:05.578Z,9.20
2022-11-27T15:19:37.378Z,8.52
2022-11-27T15:22:05.327Z,6.93
2022-11-27T15:24:34.899Z,5.40
2022-11-27T15:27:28.451Z,7.40
2022-11-27T15:29:55.325Z,8.00
2022-11-27T15:32:35.646Z,5.75
2022-11-27T15:35:14.251Z,6.60
2022-11-27T15:37:42.301Z,8.70
2022-11-27T15:40:30.150Z,13.35
2022-11-27T15:42:57.521Z,14.15
2022-11-27T15:45:28.425Z,9.88
2022-11-27T15:48:03.892Z,14.98
2022-11-27T15:50:32.092Z,12.63
2022-11-27T15:53:01.006Z,15.07
2022-11-27T15:55:28.854Z,10.88
2022-11-27T15:57:55.732Z,13.35
2022-11-27T16:00:24.501Z,17.08
2022-11-27T16:02:52.501Z,14.98
2022-11-27T16:05:20.988Z,16.38
2022-11-27T16:07:55.627Z,19.25
2022-11-27T16:10:23.105Z,22.08
2022-11-27T16:12:57.860Z,16.33
2022-11-27T16:15:28.829Z,11.60
2022-11-27T16:18:15.703Z,14.85
2022-11-27T16:20:46.539Z,13.30
2022-11-27T16:23:13.396Z,13.18
2022-11-27T16:25:41.430Z,10.48
2022-11-27T16:28:09.202Z,11.88
2022-11-27T16:30:39.132Z,9.93
2022-11-27T16:33:11.256Z,12.77
2022-11-27T16:35:40.802Z,15.55
2022-11-27T16:38:10.305Z,18.05
2022-11-27T16:40:37.979Z,21.35
2022-11-27T16:43:05.222Z,16.13
2022-11-27T16:45:37.489Z,12.32
2022-11-27T16:54:13.068Z,17.80
2022-11-27T16:56:40.110Z,22.48
2022-11-27T16:59:40.806Z,20.50
2022-11-27T17:02:30.868Z,24.23
2022-11-27T17:05:03.449Z,17.92
2022-11-27T17:13:16.964Z,29.15
2022-11-27T17:24:22.644Z,18.92
2022-11-27T17:29:36.883Z,19.45
2022-11-27T17:32:07.823Z,18.55
2022-11-27T17:34:36.547Z,16.30
2022-11-27T17:37:07.951Z,16.35
2022-11-27T17:39:38.069Z,17.17
2022-11-27T17:42:18.121Z,14.43
2022-11-27T17:44:54.622Z,13.32
2022-11-27T17:50:13.551Z,10.52
2022-11-27T17:52:40.436Z,9.10
2022-11-27T17:55:08.513Z,13.38
2022-11-27T18:00:22.744Z,10.45
2022-11-27T18:02:49.615Z,14.05
2022-11-27T18:05:16.468Z,15.73
2022-11-27T18:07:44.261Z,13.02
2022-11-27T18:10:19.866Z,15.00
2022-11-27T18:12:47.779Z,12.02
2022-11-27T18:15:15.536Z,16.10
2022-11-27T18:17:45.482Z,14.77
2022-11-27T18:20:14.629Z,12.68
2022-11-27T18:22:41.697Z,12.07
2022-11-27T18:25:13.455Z,14.65
2022-11-27T18:27:41.183Z,15.52
2022-11-27T18:30:11.500Z,17.35
2022-11-27T18:32:41.559Z,22.40
2022-11-27T18:37:57.500Z,22.63
2022-11-27T18:40:24.448Z,22.73
2022-11-27T18:42:52.760Z,19.20
2022-11-27T18:45:37.390Z,21.63
2022-11-27T18:48:04.875Z,23.73
2022-11-27T18:50:31.961Z,18.42
2022-11-27T18:52:59.630Z,16.08
2022-11-27T18:55:26.883Z,17.20
2022-11-27T18:57:54.228Z,11.70
2022-11-27T19:00:25.279Z,12.48
2022-11-27T19:02:55.042Z,16.02
2022-11-27T19:10:51.616Z,14.85
2022-11-27T19:13:20.843Z,12.30
2022-11-27T19:15:49.190Z,14.30
2022-11-27T19:18:18.655Z,13.75
2022-11-27T19:20:56.911Z,15.55
2022-11-27T19:23:28.279Z,15.27
2022-11-27T19:25:55.767Z,12.77
2022-11-27T19:28:27.204Z,16.98
2022-11-27T19:30:56.845Z,16.50
2022-11-27T19:33:25.816Z,17.92
2022-11-27T19:35:53.042Z,12.88
2022-11-27T19:38:30.464Z,10.45
2022-11-27T19:40:57.596Z,11.68
2022-11-27T19:43:26.315Z,13.38
2022-11-27T19:45:53.573Z,11.02
2022-11-27T19:48:23.362Z,12.95
2022-11-27T19:50:51.894Z,12.02
2022-11-27T19:53:19.503Z,13.13
2022-11-27T19:55:54.715Z,13.60
2022-11-27T19:58:21.877Z,10.38
2022-11-27T20:00:48.987Z,13.73
2022-11-27T20:03:17.202Z,13.27
2022-11-27T20:05:45.546Z,14.43
2022-11-27T20:08:14.985Z,13.73
2022-11-27T20:10:42.158Z,12.10
2022-11-27T20:13:14.991Z,14.23
2022-11-27T20:15:41.943Z,14.57
2022-11-27T20:20:51.258Z,13.57
2022-11-27T20:23:41.737Z,14.20
2022-11-27T20:29:18.731Z,18.75
2022-11-27T20:31:45.879Z,14.52
2022-11-27T20:42:48.329Z,13.13
2022-11-27T20:45:20.402Z,10.93
2022-11-27T20:56:39.426Z,15.18
2022-11-27T20:59:07.961Z,15.68
2022-11-27T21:09:51.514Z,12.63
2022-11-27T21:12:36.510Z,10.73
2022-11-27T21:17:47.877Z,12.25
2022-11-27T21:20:16.332Z,12.65
2022-11-27T21:22:47.437Z,13.45
2022-11-27T21:25:15.555Z,12.07
2022-11-27T21:27:45.786Z,14.63
2022-11-27T21:30:14.022Z,13.65
2022-11-27T21:32:48.918Z,13.63
2022-11-27T21:35:17.801Z,9.00
2022-11-27T21:40:48.642Z,13.57
2022-11-27T21:43:16.936Z,10.50
2022-11-27T21:45:44.726Z,12.85
2022-11-27T21:48:14.499Z,10.60
2022-11-27T21:50:43.719Z,11.30
2022-11-27T21:53:10.730Z,9.80
2022-11-27T21:55:46.094Z,13.65
2022-11-27T21:58:15.865Z,16.75
2022-11-27T22:00:43.021Z,14.00
2022-11-27T22:03:10.098Z,12.73
2022-11-27T22:05:36.978Z,12.07
2022-11-27T22:08:04.433Z,14.63
2022-11-27T22:10:36.011Z,12.98
2022-11-27T22:13:03.391Z,9.82
2022-11-27T22:15:33.789Z,10.45
2022-11-27T22:18:01.219Z,12.52
2022-11-27T22:20:27.986Z,10.50
2022-11-27T22:23:04.188Z,12.20
2022-11-27T22:25:31.415Z,12.35
2022-11-27T22:27:58.706Z,9.88
2022-11-27T22:30:36.228Z,10.35
2022-11-27T22:33:03.539Z,8.80
2022-11-27T22:35:30.650Z,14.95
2022-11-27T22:37:57.712Z,13.88
2022-11-27T22:40:27.949Z,10.13
2022-11-27T22:42:55.231Z,10.80
2022-11-27T22:45:22.108Z,10.88
2022-11-27T22:47:48.978Z,9.20
2022-11-27T22:50:15.834Z,7.22
2022-11-27T22:52:42.652Z,10.00
2022-11-27T22:55:09.717Z,8.93
2022-11-27T22:57:36.757Z,7.90
2022-11-27T23:00:05.574Z,7.68
2022-11-27T23:02:32.479Z,7.38
2022-11-27T23:04:59.583Z,10.55
2022-11-27T23:07:26.423Z,11.77
2022-11-27T23:09:55.547Z,8.02
2022-11-27T23:12:23.243Z,6.70
2022-11-27T23:14:50.151Z,6.80
2022-11-27T23:17:16.951Z,10.73
2022-11-27T23:19:44.117Z,8.85
2022-11-27T23:22:11.032Z,9.48
2022-11-27T23:24:37.962Z,7.45
2022-11-27T23:27:04.796Z,9.55
2022-11-27T23:29:31.778Z,11.77
2022-11-27T23:31:58.690Z,8.15
2022-11-27T23:34:25.711Z,11.70
2022-11-27T23:36:52.530Z,8.05
2022-11-27T23:39:19.346Z,10.18
2022-11-27T23:41:49.293Z,8.57
2022-11-27T23:44:16.493Z,7.88
2022-11-27T23:46:43.407Z,8.48
2022-11-27T23:49:10.544Z,8.23
2022-11-27T23:51:37.462Z,11.48
2022-11-27T23:54:08.558Z,8.07
2022-11-27T23:56:36.547Z,8.60
2022-11-27T23:59:03.475Z,7.25
